»·PEaware :: N751LU KTUS-KDIK

N751LU :: KTUS-KDIK

FLIGHT INFORMATION

Flight Status: Arrived
Operator: Privately registered:
United States
More flights under this callsign
Pilot: Ewen S. (18928)
Aircraft: CANADAIR CL-600 CHALLENGER
(CL60)
More flights by this aircraft type
Origin: KTUS Tucson Intl
United States
Destination: KDIK Dickinson Mun
United States
More flights between these airports :: More routes between these airports
Route: TUS8 PXR J44 RSK V95 HBU CYS J17 RAP PIONR DIK
File this flight plan on PilotEdge
Remarks:
Altitude:
(Current/Filed)
39,000ft
Speed:
(Current/Filed)
460kts
Departed: 01-Oct-23 10:18 AM
Arrived: 01-Oct-23 12:31 PM
Distance/Time
Traveled:
957nm/2:12
Distance/Time
To Go:
Arrived

Flight Plot

Page will automatically refresh every two minutes.

Flight plan parsing failed; only flown route is shown


Map Options




Map Legend


Flown Route
Filed Route
Departure Airport
Arrival Airport
Navaid (VOR, NDB)
Fix

Horizontal Profiles

Position Reports

Time Latitude Longitude Heading Altitude Ground
Speed
01-Oct-23 09:54 32.125664 -110.945491 0 2601ft 0kts
01-Oct-23 09:55 32.125664 -110.945491 224 2601ft 0kts
01-Oct-23 09:56 32.125664 -110.945491 224 2601ft 0kts
01-Oct-23 09:57 32.125664 -110.945491 224 2601ft 0kts
01-Oct-23 09:58 32.125664 -110.945491 224 2601ft 0kts
01-Oct-23 09:59 32.125664 -110.945491 224 2601ft 0kts
01-Oct-23 10:00 32.125664 -110.945491 224 2601ft 0kts
01-Oct-23 10:01 32.125664 -110.945491 224 2601ft 0kts
01-Oct-23 10:02 32.125664 -110.945491 224 2601ft 0kts
01-Oct-23 10:03 32.125664 -110.945491 224 2601ft 0kts
01-Oct-23 10:04 32.125664 -110.945491 224 2601ft 0kts
01-Oct-23 10:05 32.125664 -110.945491 224 2601ft 0kts
01-Oct-23 10:06 32.125664 -110.945491 224 2601ft 0kts
01-Oct-23 10:07 32.125664 -110.945491 224 2601ft 0kts
01-Oct-23 10:09 32.126100 -110.945263 323 2601ft 3kts
01-Oct-23 10:10 32.126312 -110.945756 244 2601ft 5kts
01-Oct-23 10:11 32.124144 -110.946230 133 2601ft 14kts
01-Oct-23 10:12 32.120493 -110.942011 135 2601ft 21kts
01-Oct-23 10:13 32.115853 -110.936641 138 2601ft 25kts
01-Oct-23 10:14 32.110617 -110.930440 136 2601ft 27kts
01-Oct-23 10:15 32.105469 -110.924467 133 2601ft 13kts
01-Oct-23 10:16 32.103417 -110.922087 136 2601ft 0kts
01-Oct-23 10:17 32.102808 -110.923799 315 2601ft 22kts
01-Oct-23 10:18 32.133282 -110.949575 1 3939ft 210kts
01-Oct-23 10:19 32.145095 -110.888094 154 6860ft 254kts
01-Oct-23 10:20 32.085583 -110.911236 252 11571ft 271kts
01-Oct-23 10:21 32.143123 -110.970929 341 15805ft 343kts
01-Oct-23 10:22 32.234842 -111.007663 326 19317ft 348kts
01-Oct-23 10:23 32.320900 -111.063008 322 22427ft 356kts
01-Oct-23 10:24 32.410541 -111.122078 322 25097ft 372kts
01-Oct-23 10:25 32.503125 -111.183144 322 27486ft 386kts
01-Oct-23 10:26 32.599444 -111.246764 321 29587ft 398kts
01-Oct-23 10:27 32.697736 -111.311812 321 31465ft 407kts
01-Oct-23 10:28 32.798833 -111.378889 322 32998ft 417kts
01-Oct-23 10:29 32.902358 -111.447753 322 34287ft 426kts
01-Oct-23 10:30 33.000191 -111.524479 309 35891ft 405kts
01-Oct-23 10:31 33.085494 -111.612127 309 37102ft 403kts
01-Oct-23 10:31 33.156177 -111.684801 309 37947ft 401kts
01-Oct-23 10:33 33.254525 -111.786093 309 39016ft 396kts
01-Oct-23 10:34 33.346613 -111.867661 324 39010ft 431kts
01-Oct-23 10:35 33.469437 -111.901566 353 38975ft 479kts
01-Oct-23 10:35 33.580711 -111.866214 24 39001ft 512kts
01-Oct-23 10:36 33.706123 -111.777235 26 39010ft 520kts
01-Oct-23 10:37 33.831525 -111.687742 26 39036ft 519kts
01-Oct-23 10:38 33.956166 -111.598555 26 39069ft 518kts
01-Oct-23 10:40 34.101512 -111.494216 26 39108ft 517kts
01-Oct-23 10:40 34.205207 -111.419536 27 39113ft 516kts
01-Oct-23 10:41 34.330033 -111.329382 28 39055ft 519kts
01-Oct-23 10:42 34.454802 -111.238947 27 39065ft 520kts
01-Oct-23 10:43 34.579913 -111.147938 27 39016ft 518kts
01-Oct-23 10:44 34.704298 -111.057158 27 38968ft 520kts
01-Oct-23 10:45 34.829397 -110.965531 27 38946ft 521kts
01-Oct-23 10:46 34.954069 -110.873891 28 38866ft 521kts
01-Oct-23 10:47 35.073313 -110.772579 44 38845ft 521kts
01-Oct-23 10:48 35.165828 -110.634151 52 38848ft 523kts
01-Oct-23 10:49 35.256516 -110.493571 51 38862ft 524kts
01-Oct-23 10:50 35.347090 -110.352679 52 38875ft 524kts
01-Oct-23 10:51 35.437976 -110.210797 52 38907ft 523kts
01-Oct-23 10:52 35.528256 -110.069313 52 38928ft 524kts
01-Oct-23 10:53 35.618439 -109.927421 52 38924ft 523kts
01-Oct-23 10:54 35.708411 -109.785281 53 38922ft 524kts
01-Oct-23 10:55 35.797933 -109.643268 53 38886ft 522kts
01-Oct-23 10:56 35.887311 -109.500901 53 38882ft 522kts
01-Oct-23 10:57 35.976217 -109.358700 53 38878ft 520kts
01-Oct-23 10:58 36.064754 -109.216516 54 38877ft 519kts
01-Oct-23 10:59 36.153123 -109.074003 53 38886ft 520kts
01-Oct-23 11:00 36.241422 -108.931002 54 38899ft 520kts
01-Oct-23 11:01 36.329134 -108.788358 54 38884ft 521kts
01-Oct-23 11:02 36.415655 -108.647067 54 38856ft 522kts
01-Oct-23 11:03 36.503836 -108.502476 55 38841ft 522kts
01-Oct-23 11:04 36.591752 -108.357704 54 38833ft 521kts
01-Oct-23 11:05 36.679475 -108.212639 55 38884ft 519kts
01-Oct-23 11:06 36.787365 -108.092161 27 38928ft 523kts
01-Oct-23 11:07 36.917695 -108.009703 25 38890ft 524kts
01-Oct-23 11:08 37.048648 -107.926967 25 38835ft 521kts
01-Oct-23 11:09 37.178725 -107.844517 25 38902ft 520kts
01-Oct-23 11:10 37.308714 -107.761840 25 38916ft 520kts
01-Oct-23 11:11 37.438533 -107.678962 25 38938ft 517kts
01-Oct-23 11:12 37.567200 -107.596506 25 38977ft 513kts
01-Oct-23 11:13 37.694556 -107.514598 25 39033ft 512kts
01-Oct-23 11:14 37.820821 -107.433088 25 39088ft 509kts
01-Oct-23 11:15 37.947697 -107.350868 26 39018ft 507kts
01-Oct-23 11:16 38.073591 -107.268950 26 38997ft 503kts
01-Oct-23 11:17 38.199429 -107.186762 26 38981ft 504kts
01-Oct-23 11:18 38.324670 -107.104647 27 39024ft 503kts
01-Oct-23 11:19 38.450021 -107.022136 27 39031ft 506kts
01-Oct-23 11:20 38.576649 -106.938453 27 38939ft 506kts
01-Oct-23 11:21 38.702024 -106.855267 27 38946ft 506kts
01-Oct-23 11:22 38.828230 -106.771198 27 38945ft 507kts
01-Oct-23 11:23 38.954530 -106.686723 27 38941ft 509kts
01-Oct-23 11:24 39.081178 -106.601675 28 38878ft 513kts
01-Oct-23 11:25 39.208046 -106.516134 28 38857ft 510kts
01-Oct-23 11:26 39.334939 -106.430222 28 38797ft 511kts
01-Oct-23 11:27 39.461379 -106.344259 28 38802ft 511kts
01-Oct-23 11:28 39.587960 -106.257847 29 38733ft 511kts
01-Oct-23 11:29 39.714548 -106.171067 29 38733ft 511kts
01-Oct-23 11:30 39.841281 -106.083822 29 38738ft 513kts
01-Oct-23 11:31 39.968458 -105.995888 29 38746ft 514kts
01-Oct-23 11:32 40.095411 -105.907746 29 38669ft 515kts
01-Oct-23 11:33 40.222518 -105.819118 29 38688ft 514kts
01-Oct-23 11:34 40.350024 -105.729820 29 38660ft 516kts
01-Oct-23 11:35 40.477315 -105.640288 29 38640ft 515kts
01-Oct-23 11:36 40.604438 -105.550489 29 38598ft 516kts
01-Oct-23 11:37 40.731532 -105.460312 29 38548ft 516kts
01-Oct-23 11:38 40.855454 -105.371994 29 38556ft 517kts
01-Oct-23 11:39 40.982305 -105.281208 30 38612ft 515kts
01-Oct-23 11:40 41.109392 -105.189839 30 38626ft 516kts
01-Oct-23 11:41 41.236351 -105.098152 30 38633ft 518kts
01-Oct-23 11:42 41.363781 -105.005711 30 38697ft 519kts
01-Oct-23 11:43 41.491477 -104.912657 30 38690ft 518kts
01-Oct-23 11:44 41.618115 -104.819957 30 38656ft 518kts
01-Oct-23 11:45 41.745050 -104.726610 30 38653ft 517kts
01-Oct-23 11:46 41.872368 -104.632552 30 38646ft 518kts
01-Oct-23 11:47 41.999262 -104.538373 29 38638ft 519kts
01-Oct-23 11:48 42.126450 -104.443544 30 38559ft 518kts
01-Oct-23 11:49 42.252922 -104.348816 30 38557ft 516kts
01-Oct-23 11:50 42.379292 -104.253716 30 38631ft 516kts
01-Oct-23 11:51 42.504994 -104.158674 30 38631ft 515kts
01-Oct-23 11:52 42.630131 -104.063617 30 38636ft 513kts
01-Oct-23 11:53 42.755505 -103.967934 30 38581ft 513kts
01-Oct-23 11:54 42.880807 -103.871857 30 38576ft 513kts
01-Oct-23 11:55 43.005700 -103.775644 30 38582ft 513kts
01-Oct-23 11:56 43.129781 -103.679605 30 38653ft 512kts
01-Oct-23 11:57 43.254458 -103.582645 30 38649ft 514kts
01-Oct-23 11:58 43.379728 -103.484755 30 38596ft 514kts
01-Oct-23 11:59 43.502664 -103.388231 30 38601ft 514kts
01-Oct-23 12:00 43.627203 -103.289988 31 38603ft 514kts
01-Oct-23 12:01 43.751943 -103.191100 31 38600ft 514kts
01-Oct-23 12:02 43.876705 -103.091718 31 38658ft 514kts
01-Oct-23 12:03 44.009628 -103.018708 8 38638ft 514kts
01-Oct-23 12:04 44.152820 -103.012101 357 38557ft 511kts
01-Oct-23 12:05 44.296211 -103.003436 1 38563ft 513kts
01-Oct-23 12:06 44.439361 -102.990965 1 38546ft 514kts
01-Oct-23 12:07 44.582852 -102.978397 1 38536ft 513kts
01-Oct-23 12:08 44.725506 -102.965836 1 38537ft 512kts
01-Oct-23 12:09 44.868383 -102.953198 1 38565ft 511kts
01-Oct-23 12:10 45.009328 -102.940635 1 36448ft 499kts
01-Oct-23 12:11 45.147020 -102.928309 0 34227ft 488kts
01-Oct-23 12:12 45.281972 -102.916188 0 31764ft 479kts
01-Oct-23 12:13 45.413528 -102.904314 0 29354ft 466kts
01-Oct-23 12:14 45.541925 -102.892673 1 27022ft 451kts
01-Oct-23 12:15 45.665610 -102.881399 1 24722ft 436kts
01-Oct-23 12:16 45.785153 -102.870479 1 22509ft 419kts
01-Oct-23 12:17 45.899239 -102.860016 2 20410ft 399kts
01-Oct-23 12:18 46.008295 -102.849991 2 18269ft 383kts
01-Oct-23 12:19 46.113518 -102.840226 2 16202ft 368kts
01-Oct-23 12:20 46.214015 -102.830940 3 14206ft 355kts
01-Oct-23 12:21 46.311067 -102.821927 3 12250ft 343kts
01-Oct-23 12:22 46.405738 -102.813074 3 10356ft 333kts
01-Oct-23 12:23 46.497157 -102.804512 4 8485ft 322kts
01-Oct-23 12:24 46.561408 -102.730830 63 6587ft 299kts
01-Oct-23 12:25 46.618784 -102.661945 357 5166ft 240kts
01-Oct-23 12:26 46.673878 -102.699406 331 5141ft 211kts
01-Oct-23 12:27 46.720098 -102.737615 332 4331ft 163kts
01-Oct-23 12:28 46.755785 -102.766937 332 3500ft 139kts
01-Oct-23 12:29 46.789062 -102.794597 332 2675ft 134kts
01-Oct-23 12:30 46.804968 -102.807562 39 2588ft 5kts
01-Oct-23 12:31 46.802470 -102.802823 93 2593ft 17kts
01-Oct-23 12:32 46.802439 -102.799366 88 2595ft 0kts

Navigation Log

Ident Type
Flight plan parsing failed, navigation log unavailable